sensor_id;sensor_type;location;lat;lon;timestamp;P1;durP1;ratioP1;P2;durP2;ratioP2
21356;SDS011;10836;53.068;18.234;2022-08-19T00:01:28;26.10;;;23.35;;
21356;SDS011;10836;53.068;18.234;2022-08-19T00:03:57;26.58;;;23.27;;
21356;SDS011;10836;53.068;18.234;2022-08-19T00:06:26;31.10;;;23.25;;
21356;SDS011;10836;53.068;18.234;2022-08-19T00:08:54;27.00;;;22.50;;
21356;SDS011;10836;53.068;18.234;2022-08-19T00:11:22;25.95;;;23.17;;
21356;SDS011;10836;53.068;18.234;2022-08-19T00:13:52;29.75;;;22.83;;
21356;SDS011;10836;53.068;18.234;2022-08-19T00:16:19;27.88;;;23.30;;
21356;SDS011;10836;53.068;18.234;2022-08-19T00:18:51;29.40;;;22.92;;
21356;SDS011;10836;53.068;18.234;2022-08-19T00:21:20;28.48;;;23.80;;
21356;SDS011;10836;53.068;18.234;2022-08-19T00:23:47;28.50;;;22.40;;
21356;SDS011;10836;53.068;18.234;2022-08-19T00:26:14;26.63;;;21.83;;
21356;SDS011;10836;53.068;18.234;2022-08-19T00:28:41;29.58;;;22.98;;
21356;SDS011;10836;53.068;18.234;2022-08-19T00:31:09;27.30;;;22.73;;
21356;SDS011;10836;53.068;18.234;2022-08-19T00:33:36;34.55;;;24.05;;
21356;SDS011;10836;53.068;18.234;2022-08-19T00:36:06;28.60;;;25.20;;
21356;SDS011;10836;53.068;18.234;2022-08-19T00:38:35;34.60;;;25.67;;
21356;SDS011;10836;53.068;18.234;2022-08-19T00:41:05;29.73;;;24.58;;
21356;SDS011;10836;53.068;18.234;2022-08-19T00:43:33;28.23;;;24.48;;
21356;SDS011;10836;53.068;18.234;2022-08-19T00:46:00;28.13;;;23.33;;
21356;SDS011;10836;53.068;18.234;2022-08-19T00:48:32;28.80;;;24.48;;
21356;SDS011;10836;53.068;18.234;2022-08-19T00:51:00;28.75;;;25.40;;
21356;SDS011;10836;53.068;18.234;2022-08-19T00:53:28;28.98;;;25.27;;
21356;SDS011;10836;53.068;18.234;2022-08-19T00:55:58;31.45;;;26.38;;
21356;SDS011;10836;53.068;18.234;2022-08-19T00:58:29;32.95;;;26.52;;
21356;SDS011;10836;53.068;18.234;2022-08-19T01:00:59;28.92;;;25.83;;
21356;SDS011;10836;53.068;18.234;2022-08-19T01:03:27;26.92;;;24.00;;
21356;SDS011;10836;53.068;18.234;2022-08-19T01:06:15;34.47;;;25.58;;
21356;SDS011;10836;53.068;18.234;2022-08-19T01:08:46;29.92;;;25.85;;
21356;SDS011;10836;53.068;18.234;2022-08-19T01:11:16;34.35;;;26.58;;
21356;SDS011;10836;53.068;18.234;2022-08-19T01:13:43;30.23;;;26.55;;
21356;SDS011;10836;53.068;18.234;2022-08-19T01:16:16;29.35;;;26.13;;
21356;SDS011;10836;53.068;18.234;2022-08-19T01:18:46;29.20;;;25.20;;
21356;SDS011;10836;53.068;18.234;2022-08-19T01:23:55;28.08;;;25.05;;
21356;SDS011;10836;53.068;18.234;2022-08-19T01:26:23;31.42;;;25.88;;
21356;SDS011;10836;53.068;18.234;2022-08-19T01:28:52;32.67;;;26.35;;
21356;SDS011;10836;53.068;18.234;2022-08-19T01:31:27;31.27;;;27.27;;
21356;SDS011;10836;53.068;18.234;2022-08-19T01:34:00;35.30;;;28.83;;
21356;SDS011;10836;53.068;18.234;2022-08-19T01:36:32;35.88;;;26.48;;
21356;SDS011;10836;53.068;18.234;2022-08-19T01:39:03;32.58;;;27.13;;
21356;SDS011;10836;53.068;18.234;2022-08-19T01:41:33;31.20;;;27.20;;
21356;SDS011;10836;53.068;18.234;2022-08-19T01:44:00;27.33;;;24.25;;
21356;SDS011;10836;53.068;18.234;2022-08-19T01:46:45;32.92;;;27.85;;
21356;SDS011;10836;53.068;18.234;2022-08-19T01:49:14;31.83;;;27.98;;
21356;SDS011;10836;53.068;18.234;2022-08-19T01:51:43;33.08;;;27.98;;
21356;SDS011;10836;53.068;18.234;2022-08-19T01:54:12;31.10;;;26.67;;
21356;SDS011;10836;53.068;18.234;2022-08-19T01:56:54;29.38;;;25.90;;
21356;SDS011;10836;53.068;18.234;2022-08-19T01:59:27;34.20;;;26.67;;
21356;SDS011;10836;53.068;18.234;2022-08-19T02:01:54;31.33;;;25.42;;
21356;SDS011;10836;53.068;18.234;2022-08-19T02:04:22;29.42;;;25.67;;
21356;SDS011;10836;53.068;18.234;2022-08-19T02:06:50;29.95;;;25.40;;
21356;SDS011;10836;53.068;18.234;2022-08-19T02:09:17;28.20;;;24.17;;
21356;SDS011;10836;53.068;18.234;2022-08-19T02:11:44;30.05;;;26.85;;
21356;SDS011;10836;53.068;18.234;2022-08-19T02:14:11;33.25;;;26.13;;
21356;SDS011;10836;53.068;18.234;2022-08-19T02:16:38;37.35;;;27.42;;
21356;SDS011;10836;53.068;18.234;2022-08-19T02:19:06;33.65;;;28.27;;
21356;SDS011;10836;53.068;18.234;2022-08-19T02:21:34;34.53;;;28.27;;
21356;SDS011;10836;53.068;18.234;2022-08-19T02:24:01;31.95;;;27.42;;
21356;SDS011;10836;53.068;18.234;2022-08-19T02:26:29;37.38;;;28.48;;
21356;SDS011;10836;53.068;18.234;2022-08-19T02:28:56;33.10;;;27.52;;
21356;SDS011;10836;53.068;18.234;2022-08-19T02:31:24;42.13;;;31.17;;
21356;SDS011;10836;53.068;18.234;2022-08-19T02:33:52;42.40;;;30.63;;
21356;SDS011;10836;53.068;18.234;2022-08-19T02:36:23;41.22;;;31.38;;
21356;SDS011;10836;53.068;18.234;2022-08-19T02:38:51;32.15;;;27.98;;
21356;SDS011;10836;53.068;18.234;2022-08-19T02:41:30;31.75;;;28.15;;
21356;SDS011;10836;53.068;18.234;2022-08-19T02:44:00;32.78;;;27.40;;
21356;SDS011;10836;53.068;18.234;2022-08-19T02:46:48;34.35;;;26.30;;
21356;SDS011;10836;53.068;18.234;2022-08-19T02:49:18;26.85;;;23.95;;
21356;SDS011;10836;53.068;18.234;2022-08-19T02:51:45;31.95;;;27.40;;
21356;SDS011;10836;53.068;18.234;2022-08-19T02:54:14;28.88;;;24.90;;
21356;SDS011;10836;53.068;18.234;2022-08-19T02:56:42;32.22;;;26.42;;
21356;SDS011;10836;53.068;18.234;2022-08-19T02:59:10;35.30;;;28.08;;
21356;SDS011;10836;53.068;18.234;2022-08-19T03:01:39;33.13;;;26.85;;
21356;SDS011;10836;53.068;18.234;2022-08-19T03:04:08;33.83;;;27.30;;
21356;SDS011;10836;53.068;18.234;2022-08-19T03:06:38;33.58;;;25.75;;
21356;SDS011;10836;53.068;18.234;2022-08-19T03:09:06;31.80;;;25.40;;
21356;SDS011;10836;53.068;18.234;2022-08-19T03:11:34;29.85;;;25.73;;
21356;SDS011;10836;53.068;18.234;2022-08-19T03:14:02;37.03;;;27.85;;
21356;SDS011;10836;53.068;18.234;2022-08-19T03:16:32;35.10;;;27.73;;
21356;SDS011;10836;53.068;18.234;2022-08-19T03:19:02;36.65;;;27.92;;
21356;SDS011;10836;53.068;18.234;2022-08-19T03:21:30;35.95;;;28.27;;
21356;SDS011;10836;53.068;18.234;2022-08-19T03:24:00;34.30;;;27.75;;
21356;SDS011;10836;53.068;18.234;2022-08-19T03:26:30;34.25;;;28.35;;
21356;SDS011;10836;53.068;18.234;2022-08-19T03:29:00;34.83;;;27.30;;
21356;SDS011;10836;53.068;18.234;2022-08-19T03:31:31;32.85;;;27.48;;
21356;SDS011;10836;53.068;18.234;2022-08-19T03:34:24;33.75;;;28.10;;
21356;SDS011;10836;53.068;18.234;2022-08-19T03:36:53;35.17;;;27.10;;
21356;SDS011;10836;53.068;18.234;2022-08-19T03:39:25;37.50;;;28.33;;
21356;SDS011;10836;53.068;18.234;2022-08-19T03:41:53;32.30;;;26.23;;
21356;SDS011;10836;53.068;18.234;2022-08-19T03:44:49;36.15;;;30.20;;
21356;SDS011;10836;53.068;18.234;2022-08-19T03:47:15;40.63;;;29.35;;
21356;SDS011;10836;53.068;18.234;2022-08-19T03:49:43;36.03;;;28.70;;
21356;SDS011;10836;53.068;18.234;2022-08-19T03:52:11;38.10;;;28.58;;
21356;SDS011;10836;53.068;18.234;2022-08-19T03:54:38;33.92;;;27.63;;
21356;SDS011;10836;53.068;18.234;2022-08-19T03:57:06;36.92;;;29.20;;
21356;SDS011;10836;53.068;18.234;2022-08-19T03:59:35;36.95;;;28.42;;
21356;SDS011;10836;53.068;18.234;2022-08-19T04:02:06;42.58;;;31.90;;
21356;SDS011;10836;53.068;18.234;2022-08-19T04:04:37;43.83;;;30.45;;
21356;SDS011;10836;53.068;18.234;2022-08-19T04:07:10;34.60;;;28.40;;
21356;SDS011;10836;53.068;18.234;2022-08-19T04:09:41;37.13;;;30.35;;
21356;SDS011;10836;53.068;18.234;2022-08-19T04:12:08;36.15;;;28.40;;
21356;SDS011;10836;53.068;18.234;2022-08-19T04:14:35;34.00;;;28.80;;
21356;SDS011;10836;53.068;18.234;2022-08-19T04:17:03;35.58;;;28.33;;
21356;SDS011;10836;53.068;18.234;2022-08-19T04:19:32;30.95;;;27.08;;
21356;SDS011;10836;53.068;18.234;2022-08-19T04:22:01;35.22;;;26.65;;
21356;SDS011;10836;53.068;18.234;2022-08-19T04:24:29;36.38;;;27.65;;
21356;SDS011;10836;53.068;18.234;2022-08-19T04:26:56;34.70;;;27.80;;
21356;SDS011;10836;53.068;18.234;2022-08-19T04:29:26;29.55;;;26.13;;
21356;SDS011;10836;53.068;18.234;2022-08-19T04:31:54;32.80;;;27.75;;
21356;SDS011;10836;53.068;18.234;2022-08-19T04:34:23;36.40;;;28.70;;
21356;SDS011;10836;53.068;18.234;2022-08-19T04:36:55;37.53;;;28.15;;
21356;SDS011;10836;53.068;18.234;2022-08-19T04:39:25;36.95;;;27.35;;
21356;SDS011;10836;53.068;18.234;2022-08-19T04:42:16;34.30;;;26.58;;
21356;SDS011;10836;53.068;18.234;2022-08-19T04:45:04;43.17;;;30.20;;
21356;SDS011;10836;53.068;18.234;2022-08-19T04:47:38;31.75;;;25.38;;
21356;SDS011;10836;53.068;18.234;2022-08-19T04:50:25;28.83;;;25.05;;
21356;SDS011;10836;53.068;18.234;2022-08-19T04:52:53;33.08;;;25.63;;
21356;SDS011;10836;53.068;18.234;2022-08-19T04:55:23;30.85;;;23.30;;
21356;SDS011;10836;53.068;18.234;2022-08-19T04:57:53;29.02;;;24.63;;
21356;SDS011;10836;53.068;18.234;2022-08-19T05:00:20;28.38;;;23.42;;
21356;SDS011;10836;53.068;18.234;2022-08-19T05:02:48;28.98;;;24.13;;
21356;SDS011;10836;53.068;18.234;2022-08-19T05:05:16;29.48;;;23.67;;
21356;SDS011;10836;53.068;18.234;2022-08-19T05:07:43;29.95;;;23.05;;
21356;SDS011;10836;53.068;18.234;2022-08-19T05:10:10;37.55;;;24.52;;
21356;SDS011;10836;53.068;18.234;2022-08-19T05:12:38;30.00;;;22.85;;
21356;SDS011;10836;53.068;18.234;2022-08-19T05:15:07;41.83;;;22.95;;
21356;SDS011;10836;53.068;18.234;2022-08-19T05:17:35;27.88;;;21.15;;
21356;SDS011;10836;53.068;18.234;2022-08-19T05:20:05;28.85;;;20.70;;
21356;SDS011;10836;53.068;18.234;2022-08-19T05:22:52;30.63;;;21.00;;
21356;SDS011;10836;53.068;18.234;2022-08-19T05:25:20;28.52;;;20.40;;
21356;SDS011;10836;53.068;18.234;2022-08-19T05:27:48;33.92;;;19.45;;
21356;SDS011;10836;53.068;18.234;2022-08-19T05:30:16;26.67;;;19.17;;
21356;SDS011;10836;53.068;18.234;2022-08-19T05:32:44;30.27;;;19.65;;
21356;SDS011;10836;53.068;18.234;2022-08-19T05:35:11;27.63;;;18.75;;
21356;SDS011;10836;53.068;18.234;2022-08-19T05:37:39;28.77;;;19.67;;
21356;SDS011;10836;53.068;18.234;2022-08-19T05:40:07;24.95;;;19.05;;
21356;SDS011;10836;53.068;18.234;2022-08-19T05:42:36;27.63;;;18.73;;
21356;SDS011;10836;53.068;18.234;2022-08-19T05:45:03;25.35;;;18.25;;
21356;SDS011;10836;53.068;18.234;2022-08-19T05:47:31;27.65;;;17.48;;
21356;SDS011;10836;53.068;18.234;2022-08-19T05:49:58;26.65;;;18.55;;
21356;SDS011;10836;53.068;18.234;2022-08-19T05:52:30;27.73;;;19.02;;
21356;SDS011;10836;53.068;18.234;2022-08-19T05:54:59;24.25;;;18.92;;
21356;SDS011;10836;53.068;18.234;2022-08-19T05:57:26;21.63;;;17.15;;
21356;SDS011;10836;53.068;18.234;2022-08-19T05:59:56;27.23;;;16.88;;
21356;SDS011;10836;53.068;18.234;2022-08-19T06:02:25;18.60;;;16.15;;
21356;SDS011;10836;53.068;18.234;2022-08-19T06:04:54;23.58;;;16.15;;
21356;SDS011;10836;53.068;18.234;2022-08-19T06:07:21;21.42;;;14.77;;
21356;SDS011;10836;53.068;18.234;2022-08-19T06:09:48;18.95;;;14.73;;
21356;SDS011;10836;53.068;18.234;2022-08-19T06:12:27;22.15;;;15.00;;
21356;SDS011;10836;53.068;18.234;2022-08-19T06:14:59;23.63;;;15.98;;
21356;SDS011;10836;53.068;18.234;2022-08-19T06:17:31;21.35;;;13.57;;
21356;SDS011;10836;53.068;18.234;2022-08-19T06:20:08;24.23;;;13.80;;
21356;SDS011;10836;53.068;18.234;2022-08-19T06:22:41;25.38;;;13.98;;
21356;SDS011;10836;53.068;18.234;2022-08-19T06:25:10;22.00;;;14.70;;
21356;SDS011;10836;53.068;18.234;2022-08-19T06:27:38;21.88;;;12.60;;
21356;SDS011;10836;53.068;18.234;2022-08-19T06:30:26;19.73;;;12.98;;
21356;SDS011;10836;53.068;18.234;2022-08-19T06:32:53;24.13;;;12.75;;
21356;SDS011;10836;53.068;18.234;2022-08-19T06:35:20;23.75;;;12.60;;
21356;SDS011;10836;53.068;18.234;2022-08-19T06:37:48;18.17;;;11.65;;
21356;SDS011;10836;53.068;18.234;2022-08-19T06:40:15;20.38;;;11.45;;
21356;SDS011;10836;53.068;18.234;2022-08-19T06:42:42;21.05;;;11.38;;
21356;SDS011;10836;53.068;18.234;2022-08-19T06:45:20;16.40;;;11.25;;
21356;SDS011;10836;53.068;18.234;2022-08-19T06:47:51;20.48;;;11.02;;
21356;SDS011;10836;53.068;18.234;2022-08-19T06:50:23;16.95;;;10.30;;
21356;SDS011;10836;53.068;18.234;2022-08-19T06:52:51;20.27;;;11.32;;
21356;SDS011;10836;53.068;18.234;2022-08-19T06:55:19;21.58;;;11.15;;
21356;SDS011;10836;53.068;18.234;2022-08-19T06:57:46;14.73;;;10.90;;
21356;SDS011;10836;53.068;18.234;2022-08-19T07:00:15;19.50;;;10.23;;
21356;SDS011;10836;53.068;18.234;2022-08-19T07:02:43;23.13;;;10.25;;
21356;SDS011;10836;53.068;18.234;2022-08-19T07:05:21;19.30;;;10.40;;
21356;SDS011;10836;53.068;18.234;2022-08-19T07:07:48;16.95;;;10.48;;
21356;SDS011;10836;53.068;18.234;2022-08-19T07:10:17;17.88;;;10.88;;
21356;SDS011;10836;53.068;18.234;2022-08-19T07:12:45;17.20;;;9.60;;
21356;SDS011;10836;53.068;18.234;2022-08-19T07:15:14;14.90;;;9.20;;
21356;SDS011;10836;53.068;18.234;2022-08-19T07:17:44;13.02;;;9.35;;
21356;SDS011;10836;53.068;18.234;2022-08-19T07:20:15;17.65;;;9.25;;
21356;SDS011;10836;53.068;18.234;2022-08-19T07:22:44;14.18;;;8.88;;
21356;SDS011;10836;53.068;18.234;2022-08-19T07:25:12;17.63;;;9.18;;
21356;SDS011;10836;53.068;18.234;2022-08-19T07:27:40;16.70;;;9.38;;
21356;SDS011;10836;53.068;18.234;2022-08-19T07:30:11;16.15;;;8.73;;
21356;SDS011;10836;53.068;18.234;2022-08-19T07:32:40;15.98;;;8.93;;
21356;SDS011;10836;53.068;18.234;2022-08-19T07:35:07;16.90;;;10.35;;
21356;SDS011;10836;53.068;18.234;2022-08-19T07:37:35;18.02;;;9.48;;
21356;SDS011;10836;53.068;18.234;2022-08-19T07:40:05;19.00;;;8.95;;
21356;SDS011;10836;53.068;18.234;2022-08-19T07:42:34;15.27;;;7.53;;
21356;SDS011;10836;53.068;18.234;2022-08-19T07:45:01;11.15;;;8.05;;
21356;SDS011;10836;53.068;18.234;2022-08-19T07:47:29;15.73;;;9.27;;
21356;SDS011;10836;53.068;18.234;2022-08-19T07:50:18;12.35;;;8.27;;
21356;SDS011;10836;53.068;18.234;2022-08-19T07:52:46;13.90;;;8.05;;
21356;SDS011;10836;53.068;18.234;2022-08-19T07:55:18;12.63;;;7.85;;
21356;SDS011;10836;53.068;18.234;2022-08-19T07:58:10;14.52;;;6.95;;
21356;SDS011;10836;53.068;18.234;2022-08-19T08:00:40;13.60;;;7.32;;
21356;SDS011;10836;53.068;18.234;2022-08-19T08:03:09;16.10;;;7.88;;
21356;SDS011;10836;53.068;18.234;2022-08-19T08:05:36;12.32;;;6.57;;
21356;SDS011;10836;53.068;18.234;2022-08-19T08:08:22;15.52;;;6.95;;
21356;SDS011;10836;53.068;18.234;2022-08-19T08:11:15;11.63;;;7.28;;
21356;SDS011;10836;53.068;18.234;2022-08-19T08:13:46;17.48;;;6.20;;
21356;SDS011;10836;53.068;18.234;2022-08-19T08:16:40;15.60;;;6.25;;
21356;SDS011;10836;53.068;18.234;2022-08-19T08:19:13;16.15;;;6.30;;
21356;SDS011;10836;53.068;18.234;2022-08-19T08:21:52;15.25;;;6.10;;
21356;SDS011;10836;53.068;18.234;2022-08-19T08:24:26;10.48;;;5.97;;
21356;SDS011;10836;53.068;18.234;2022-08-19T08:26:58;11.88;;;6.10;;
21356;SDS011;10836;53.068;18.234;2022-08-19T08:29:27;12.70;;;6.25;;
21356;SDS011;10836;53.068;18.234;2022-08-19T08:32:01;14.77;;;6.13;;
21356;SDS011;10836;53.068;18.234;2022-08-19T08:34:40;9.27;;;5.60;;
21356;SDS011;10836;53.068;18.234;2022-08-19T08:37:08;19.98;;;6.53;;
21356;SDS011;10836;53.068;18.234;2022-08-19T08:39:35;15.23;;;6.13;;
21356;SDS011;10836;53.068;18.234;2022-08-19T08:42:14;9.32;;;6.40;;
21356;SDS011;10836;53.068;18.234;2022-08-19T08:44:58;9.93;;;6.05;;
21356;SDS011;10836;53.068;18.234;2022-08-19T08:47:34;11.85;;;6.40;;
21356;SDS011;10836;53.068;18.234;2022-08-19T08:50:19;8.85;;;6.13;;
21356;SDS011;10836;53.068;18.234;2022-08-19T08:53:02;18.45;;;5.95;;
21356;SDS011;10836;53.068;18.234;2022-08-19T08:55:32;14.23;;;6.22;;
21356;SDS011;10836;53.068;18.234;2022-08-19T08:58:06;14.02;;;6.95;;
21356;SDS011;10836;53.068;18.234;2022-08-19T09:00:37;10.93;;;6.47;;
21356;SDS011;10836;53.068;18.234;2022-08-19T09:03:09;16.23;;;6.85;;
21356;SDS011;10836;53.068;18.234;2022-08-19T09:05:49;15.13;;;6.35;;
21356;SDS011;10836;53.068;18.234;2022-08-19T09:08:27;13.52;;;6.35;;
21356;SDS011;10836;53.068;18.234;2022-08-19T09:11:10;10.48;;;6.78;;
21356;SDS011;10836;53.068;18.234;2022-08-19T09:16:33;15.88;;;6.30;;
21356;SDS011;10836;53.068;18.234;2022-08-19T09:19:01;13.32;;;6.85;;
21356;SDS011;10836;53.068;18.234;2022-08-19T09:21:32;16.30;;;6.35;;
21356;SDS011;10836;53.068;18.234;2022-08-19T09:24:00;13.15;;;6.53;;
21356;SDS011;10836;53.068;18.234;2022-08-19T09:26:29;14.05;;;6.72;;
21356;SDS011;10836;53.068;18.234;2022-08-19T09:29:19;12.43;;;6.25;;
21356;SDS011;10836;53.068;18.234;2022-08-19T09:31:48;11.23;;;6.70;;
21356;SDS011;10836;53.068;18.234;2022-08-19T09:34:16;10.98;;;7.32;;
21356;SDS011;10836;53.068;18.234;2022-08-19T09:36:48;15.13;;;7.28;;
21356;SDS011;10836;53.068;18.234;2022-08-19T09:39:20;13.40;;;6.60;;
21356;SDS011;10836;53.068;18.234;2022-08-19T09:41:48;13.40;;;6.70;;
21356;SDS011;10836;53.068;18.234;2022-08-19T09:44:17;17.75;;;7.28;;
21356;SDS011;10836;53.068;18.234;2022-08-19T09:46:44;14.43;;;7.13;;
21356;SDS011;10836;53.068;18.234;2022-08-19T09:49:15;11.32;;;6.45;;
21356;SDS011;10836;53.068;18.234;2022-08-19T09:51:44;12.30;;;6.38;;
21356;SDS011;10836;53.068;18.234;2022-08-19T09:54:17;14.70;;;6.43;;
21356;SDS011;10836;53.068;18.234;2022-08-19T09:56:53;14.82;;;6.93;;
21356;SDS011;10836;53.068;18.234;2022-08-19T09:59:21;11.27;;;6.35;;
21356;SDS011;10836;53.068;18.234;2022-08-19T10:01:48;9.80;;;6.53;;
21356;SDS011;10836;53.068;18.234;2022-08-19T10:04:16;9.18;;;5.85;;
21356;SDS011;10836;53.068;18.234;2022-08-19T10:06:48;10.85;;;6.38;;
21356;SDS011;10836;53.068;18.234;2022-08-19T10:09:20;13.25;;;6.78;;
21356;SDS011;10836;53.068;18.234;2022-08-19T10:12:00;12.02;;;6.32;;
21356;SDS011;10836;53.068;18.234;2022-08-19T10:14:29;13.82;;;6.72;;
21356;SDS011;10836;53.068;18.234;2022-08-19T10:16:56;12.52;;;7.30;;
21356;SDS011;10836;53.068;18.234;2022-08-19T10:19:25;12.02;;;7.15;;
21356;SDS011;10836;53.068;18.234;2022-08-19T10:21:53;16.40;;;7.05;;
21356;SDS011;10836;53.068;18.234;2022-08-19T10:24:26;13.68;;;7.55;;
21356;SDS011;10836;53.068;18.234;2022-08-19T10:26:55;11.88;;;6.70;;
21356;SDS011;10836;53.068;18.234;2022-08-19T10:29:29;11.23;;;6.43;;
21356;SDS011;10836;53.068;18.234;2022-08-19T10:32:03;13.40;;;6.85;;
21356;SDS011;10836;53.068;18.234;2022-08-19T10:34:36;14.80;;;6.32;;
21356;SDS011;10836;53.068;18.234;2022-08-19T10:37:15;12.93;;;6.80;;
21356;SDS011;10836;53.068;18.234;2022-08-19T10:39:56;16.70;;;7.45;;
21356;SDS011;10836;53.068;18.234;2022-08-19T10:42:24;15.60;;;7.55;;
21356;SDS011;10836;53.068;18.234;2022-08-19T10:44:51;14.82;;;7.47;;
21356;SDS011;10836;53.068;18.234;2022-08-19T10:47:18;17.33;;;7.13;;
21356;SDS011;10836;53.068;18.234;2022-08-19T10:49:53;12.43;;;6.70;;
21356;SDS011;10836;53.068;18.234;2022-08-19T10:52:40;17.02;;;7.25;;
21356;SDS011;10836;53.068;18.234;2022-08-19T10:55:22;18.95;;;7.25;;
21356;SDS011;10836;53.068;18.234;2022-08-19T10:58:10;10.70;;;6.32;;
21356;SDS011;10836;53.068;18.234;2022-08-19T11:00:39;13.73;;;7.20;;
21356;SDS011;10836;53.068;18.234;2022-08-19T11:03:07;15.00;;;7.32;;
21356;SDS011;10836;53.068;18.234;2022-08-19T11:05:35;19.33;;;7.10;;
21356;SDS011;10836;53.068;18.234;2022-08-19T11:08:07;14.93;;;6.95;;
21356;SDS011;10836;53.068;18.234;2022-08-19T11:10:52;15.07;;;7.70;;
21356;SDS011;10836;53.068;18.234;2022-08-19T11:13:32;17.65;;;6.95;;
21356;SDS011;10836;53.068;18.234;2022-08-19T11:16:05;14.65;;;7.05;;
21356;SDS011;10836;53.068;18.234;2022-08-19T11:18:40;13.35;;;6.88;;
21356;SDS011;10836;53.068;18.234;2022-08-19T11:23:48;12.88;;;6.43;;
21356;SDS011;10836;53.068;18.234;2022-08-19T11:26:17;13.25;;;6.43;;
21356;SDS011;10836;53.068;18.234;2022-08-19T11:28:46;12.32;;;6.57;;
21356;SDS011;10836;53.068;18.234;2022-08-19T11:31:16;11.30;;;6.70;;
21356;SDS011;10836;53.068;18.234;2022-08-19T11:33:45;23.20;;;7.72;;
21356;SDS011;10836;53.068;18.234;2022-08-19T11:36:14;14.02;;;6.68;;
21356;SDS011;10836;53.068;18.234;2022-08-19T11:38:42;9.80;;;6.43;;
21356;SDS011;10836;53.068;18.234;2022-08-19T11:41:11;17.67;;;6.57;;
21356;SDS011;10836;53.068;18.234;2022-08-19T11:43:38;19.60;;;6.68;;
21356;SDS011;10836;53.068;18.234;2022-08-19T11:46:10;20.35;;;6.88;;
21356;SDS011;10836;53.068;18.234;2022-08-19T11:48:40;13.20;;;6.25;;
21356;SDS011;10836;53.068;18.234;2022-08-19T11:51:12;13.68;;;6.22;;
21356;SDS011;10836;53.068;18.234;2022-08-19T11:53:42;19.73;;;5.82;;
21356;SDS011;10836;53.068;18.234;2022-08-19T11:56:09;15.07;;;6.50;;
21356;SDS011;10836;53.068;18.234;2022-08-19T11:58:37;19.15;;;6.38;;
21356;SDS011;10836;53.068;18.234;2022-08-19T12:01:05;15.63;;;7.00;;
21356;SDS011;10836;53.068;18.234;2022-08-19T12:03:34;12.73;;;6.38;;
21356;SDS011;10836;53.068;18.234;2022-08-19T12:06:08;14.70;;;6.70;;
21356;SDS011;10836;53.068;18.234;2022-08-19T12:08:40;16.92;;;6.40;;
21356;SDS011;10836;53.068;18.234;2022-08-19T12:11:07;21.17;;;7.38;;
21356;SDS011;10836;53.068;18.234;2022-08-19T12:13:35;17.98;;;6.28;;
21356;SDS011;10836;53.068;18.234;2022-08-19T12:16:13;12.50;;;5.70;;
21356;SDS011;10836;53.068;18.234;2022-08-19T12:18:43;15.23;;;5.93;;
21356;SDS011;10836;53.068;18.234;2022-08-19T12:21:14;13.35;;;6.32;;
21356;SDS011;10836;53.068;18.234;2022-08-19T12:23:43;15.75;;;6.20;;
21356;SDS011;10836;53.068;18.234;2022-08-19T12:26:19;17.08;;;6.57;;
21356;SDS011;10836;53.068;18.234;2022-08-19T12:28:46;15.73;;;6.18;;
21356;SDS011;10836;53.068;18.234;2022-08-19T12:31:15;11.88;;;5.78;;
21356;SDS011;10836;53.068;18.234;2022-08-19T12:33:43;16.83;;;6.57;;
21356;SDS011;10836;53.068;18.234;2022-08-19T12:36:11;17.25;;;6.35;;
21356;SDS011;10836;53.068;18.234;2022-08-19T12:38:39;20.23;;;7.00;;
21356;SDS011;10836;53.068;18.234;2022-08-19T12:41:09;12.15;;;6.50;;
21356;SDS011;10836;53.068;18.234;2022-08-19T12:43:39;13.00;;;6.65;;
21356;SDS011;10836;53.068;18.234;2022-08-19T12:46:06;12.32;;;6.30;;
21356;SDS011;10836;53.068;18.234;2022-08-19T12:48:37;19.80;;;6.65;;
21356;SDS011;10836;53.068;18.234;2022-08-19T12:51:08;14.63;;;6.70;;
21356;SDS011;10836;53.068;18.234;2022-08-19T12:53:39;17.15;;;6.38;;
21356;SDS011;10836;53.068;18.234;2022-08-19T12:56:07;15.52;;;6.82;;
21356;SDS011;10836;53.068;18.234;2022-08-19T12:58:38;13.82;;;5.97;;
21356;SDS011;10836;53.068;18.234;2022-08-19T13:01:07;13.68;;;6.32;;
21356;SDS011;10836;53.068;18.234;2022-08-19T13:03:36;14.88;;;6.55;;
21356;SDS011;10836;53.068;18.234;2022-08-19T13:06:07;16.08;;;5.80;;
21356;SDS011;10836;53.068;18.234;2022-08-19T13:08:35;15.70;;;6.40;;
21356;SDS011;10836;53.068;18.234;2022-08-19T13:11:10;16.77;;;7.03;;
21356;SDS011;10836;53.068;18.234;2022-08-19T13:13:40;23.67;;;6.25;;
21356;SDS011;10836;53.068;18.234;2022-08-19T13:16:10;14.25;;;5.82;;
21356;SDS011;10836;53.068;18.234;2022-08-19T13:18:38;16.83;;;6.18;;
21356;SDS011;10836;53.068;18.234;2022-08-19T13:21:07;20.08;;;5.57;;
21356;SDS011;10836;53.068;18.234;2022-08-19T13:23:38;18.15;;;6.50;;
21356;SDS011;10836;53.068;18.234;2022-08-19T13:26:07;17.48;;;6.32;;
21356;SDS011;10836;53.068;18.234;2022-08-19T13:28:35;19.42;;;5.90;;
21356;SDS011;10836;53.068;18.234;2022-08-19T13:31:21;15.63;;;6.68;;
21356;SDS011;10836;53.068;18.234;2022-08-19T13:34:09;16.30;;;6.82;;
21356;SDS011;10836;53.068;18.234;2022-08-19T13:36:36;15.05;;;5.60;;
21356;SDS011;10836;53.068;18.234;2022-08-19T13:39:05;13.60;;;5.75;;
21356;SDS011;10836;53.068;18.234;2022-08-19T13:41:34;18.77;;;6.63;;
21356;SDS011;10836;53.068;18.234;2022-08-19T13:44:03;16.20;;;5.60;;
21356;SDS011;10836;53.068;18.234;2022-08-19T13:46:31;17.30;;;6.10;;
21356;SDS011;10836;53.068;18.234;2022-08-19T13:48:58;15.82;;;6.13;;
21356;SDS011;10836;53.068;18.234;2022-08-19T13:51:25;17.65;;;5.78;;
21356;SDS011;10836;53.068;18.234;2022-08-19T13:53:52;16.17;;;5.82;;
21356;SDS011;10836;53.068;18.234;2022-08-19T13:56:20;20.48;;;6.32;;
21356;SDS011;10836;53.068;18.234;2022-08-19T13:58:52;21.02;;;6.32;;
21356;SDS011;10836;53.068;18.234;2022-08-19T14:01:20;13.07;;;5.70;;
21356;SDS011;10836;53.068;18.234;2022-08-19T14:03:50;15.65;;;5.97;;
21356;SDS011;10836;53.068;18.234;2022-08-19T14:06:18;19.05;;;6.00;;
21356;SDS011;10836;53.068;18.234;2022-08-19T14:08:45;17.17;;;5.88;;
21356;SDS011;10836;53.068;18.234;2022-08-19T14:11:13;31.90;;;6.25;;
21356;SDS011;10836;53.068;18.234;2022-08-19T14:13:40;16.08;;;5.70;;
21356;SDS011;10836;53.068;18.234;2022-08-19T14:16:08;17.17;;;5.97;;
21356;SDS011;10836;53.068;18.234;2022-08-19T14:18:37;15.20;;;5.40;;
21356;SDS011;10836;53.068;18.234;2022-08-19T14:21:06;18.98;;;5.30;;
21356;SDS011;10836;53.068;18.234;2022-08-19T14:23:33;19.40;;;5.82;;
21356;SDS011;10836;53.068;18.234;2022-08-19T14:26:07;14.02;;;5.63;;
21356;SDS011;10836;53.068;18.234;2022-08-19T14:28:35;18.42;;;5.63;;
21356;SDS011;10836;53.068;18.234;2022-08-19T14:31:02;16.00;;;5.60;;
21356;SDS011;10836;53.068;18.234;2022-08-19T14:33:30;14.52;;;5.13;;
21356;SDS011;10836;53.068;18.234;2022-08-19T14:35:57;17.88;;;6.13;;
21356;SDS011;10836;53.068;18.234;2022-08-19T14:38:25;12.30;;;5.22;;
21356;SDS011;10836;53.068;18.234;2022-08-19T14:41:07;16.42;;;5.28;;
21356;SDS011;10836;53.068;18.234;2022-08-19T14:43:36;16.08;;;5.07;;
21356;SDS011;10836;53.068;18.234;2022-08-19T14:46:04;19.02;;;5.40;;